Menalon — SXCH — position and weather

sailwx.info

Track history (hours):
 
Tides and Currents Weather Stations Pressure Air Temp Water Temp Dewpoint Dewpoint Depression Visibility Wind Speed Wind Dir Waves Ship Positions

Menalon

Last reported at 2014-Oct-31 11:34 UTC. Time now 2014-Oct-31 12:21 UTC.
Position N 37°57' E 023°34'.

; draft 4 m.

Type: Ship (hazmat cat C). MMSI: 239741000.

Date/timePositionNaut miles runAvg speedWind from/ knotsBaromVisibWave heightAir tempDewpointWater temp
2014-Oct-31 11:34N 37°57' E 023°34'0 0.0
2014-Oct-31 10:33N 37°57' E 023°34'1 0.7
2014-Oct-31 09:33N 37°57' E 023°35'0 0.0
2014-Oct-31 08:34N 37°57' E 023°35'0 0.1
2014-Oct-31 07:34N 37°57' E 023°35'1 0.5
2014-Oct-31 06:34N 37°57' E 023°35'0 0.0
2014-Oct-31 05:34N 37°57' E 023°35'0 0.0
2014-Oct-31 04:33N 37°57' E 023°35'0 0.0
2014-Oct-31 03:33N 37°57' E 023°35'0 0.0
2014-Oct-31 02:33N 37°57' E 023°35'0 0.0
2014-Oct-31 01:33N 37°57' E 023°35'0 0.0
2014-Oct-31 00:34N 37°57' E 023°34'0 0.0
2014-Oct-30 23:34N 37°57' E 023°34'0 0.0
2014-Oct-30 22:34N 37°57' E 023°34'0 0.0
2014-Oct-30 21:33N 37°57' E 023°34'0 0.0
2014-Oct-30 20:33N 37°57' E 023°34'0 0.0
2014-Oct-30 19:34N 37°57' E 023°34'0 0.0
2014-Oct-30 18:34N 37°57' E 023°34'0 0.0
2014-Oct-30 17:33N 37°57' E 023°34'0 0.0
2014-Oct-30 16:34N 37°57' E 023°34'6 5.3
2014-Oct-30 15:29N 38°02' E 023°31'0 0.0
2014-Oct-30 14:33N 38°02' E 023°31'0 0.0
2014-Oct-30 13:33N 38°02' E 023°31'0 0.0
2014-Oct-30 12:33N 38°02' E 023°31'0 0.0
2014-Oct-30 11:34N 38°02' E 023°31'0 0.0
2014-Oct-30 10:33N 38°02' E 023°31'1 1.5
2014-Oct-30 09:33N 38°01' E 023°32'0 0.0
2014-Oct-30 08:33N 38°01' E 023°32'0 0.0
2014-Oct-30 07:33N 38°01' E 023°32'0 0.0
2014-Oct-30 06:34N 38°01' E 023°32'0 0.3
2014-Oct-30 05:33N 38°01' E 023°32'0 0.3
2014-Oct-30 04:33N 38°01' E 023°31'0 0.0
2014-Oct-30 03:33N 38°01' E 023°31'0 0.1
2014-Oct-30 02:33N 38°01' E 023°31'0 0.0
2014-Oct-30 01:34N 38°01' E 023°31'3 3.4
2014-Oct-30 00:33N 38°02' E 023°36'0 0.0
2014-Oct-29 23:33N 38°02' E 023°36'0 0.0
2014-Oct-29 22:33N 38°02' E 023°36'0 0.0
2014-Oct-29 21:33N 38°02' E 023°36'0 0.0
2014-Oct-29 20:33N 38°02' E 023°36'0 0.0
2014-Oct-29 19:33N 38°02' E 023°36'0 0.0
2014-Oct-29 18:33N 38°02' E 023°36'1 0.7
2014-Oct-29 17:31N 38°01' E 023°35'0 0.0
2014-Oct-29 16:34N 38°01' E 023°35'0 0.0
2014-Oct-29 15:33N 38°01' E 023°35'0 0.0
2014-Oct-29 14:34N 38°01' E 023°35'0 0.0
2014-Oct-29 13:32N 38°01' E 023°35'0 0.0
2014-Oct-29 12:33N 38°01' E 023°35'0 0.0
2014-Oct-29 11:33N 38°01' E 023°35'4 4.0
2014-Oct-29 10:34N 37°57' E 023°35'0 0.1
2014-Oct-29 09:33N 37°57' E 023°35'0 0.0
2014-Oct-29 08:33N 37°57' E 023°35'0 0.0
2014-Oct-29 07:33N 37°57' E 023°35'0 0.0
2014-Oct-29 06:33N 37°57' E 023°35'0 0.0
2014-Oct-29 05:33N 37°57' E 023°35'0 0.0
2014-Oct-29 04:34N 37°57' E 023°35'0 0.0
2014-Oct-29 03:33N 37°57' E 023°35'0 0.0
2014-Oct-29 02:33N 37°57' E 023°35'0 0.0
2014-Oct-29 01:33N 37°57' E 023°35'0 0.0
2014-Oct-29 00:33N 37°57' E 023°35'0 0.0
2014-Oct-28 23:34N 37°57' E 023°35'0 0.0
2014-Oct-28 22:33N 37°57' E 023°35'0 0.0
2014-Oct-28 21:33N 37°57' E 023°35'0 0.0
2014-Oct-28 20:34N 37°57' E 023°35'0 0.0
2014-Oct-28 19:33N 37°57' E 023°35'0 0.0
2014-Oct-28 18:34N 37°57' E 023°35'6 5.7
2014-Oct-28 17:33N 37°52' E 023°31'1 1.1
2014-Oct-28 16:33N 37°52' E 023°30'0 0.0
2014-Oct-28 15:33N 37°52' E 023°30'0 0.0
2014-Oct-28 14:33N 37°52' E 023°30'0 0.0
2014-Oct-28 13:33N 37°52' E 023°30'2 1.8
2014-Oct-28 12:33N 37°51' E 023°32'0 0.0
2014-Oct-28 11:34N 37°51' E 023°32'0 0.1
2014-Oct-28 10:33N 37°51' E 023°32'0 0.1
2014-Oct-28 09:33N 37°51' E 023°32'0 0.0
2014-Oct-28 08:33N 37°51' E 023°32'0 0.0
2014-Oct-28 07:33N 37°51' E 023°32'0 0.0
2014-Oct-28 06:33N 37°51' E 023°32'0 0.0
2014-Oct-28 05:34N 37°51' E 023°32'0 0.0
2014-Oct-28 04:33N 37°51' E 023°32'0 0.5
2014-Oct-28 03:34N 37°51' E 023°32'7 7.3
2014-Oct-28 02:33N 37°57' E 023°36'0 0.0
2014-Oct-28 01:33N 37°57' E 023°36'0 0.0
2014-Oct-28 00:34N 37°57' E 023°36'0 0.0
2014-Oct-27 23:33N 37°57' E 023°36'0 0.0
2014-Oct-27 22:33N 37°57' E 023°36'1 1.4
2014-Oct-27 21:34N 37°57' E 023°34'0 0.0
2014-Oct-27 20:33N 37°57' E 023°34'0 0.0
2014-Oct-27 19:33N 37°57' E 023°34'0 0.0
2014-Oct-27 18:34N 37°57' E 023°34'0 0.0
2014-Oct-27 17:34N 37°57' E 023°34'0 0.0
2014-Oct-27 16:34N 37°57' E 023°34'0 0.0
2014-Oct-27 15:33N 37°57' E 023°34'0 0.0
2014-Oct-27 14:34N 37°57' E 023°34'0 0.0
2014-Oct-27 13:33N 37°57' E 023°34'0 0.0
2014-Oct-27 12:33N 37°57' E 023°34'0 0.0
2014-Oct-27 11:34N 37°57' E 023°34'0 0.0
2014-Oct-27 10:33N 37°57' E 023°34'0 0.0
2014-Oct-27 09:33N 37°57' E 023°34'0 0.0
2014-Oct-27 08:34N 37°57' E 023°34'0 0.0
2014-Oct-27 07:33N 37°57' E 023°34'0 0.0
2014-Oct-27 06:33N 37°57' E 023°34'0 0.0
2014-Oct-27 05:34N 37°57' E 023°34'0 0.0
2014-Oct-27 04:33N 37°57' E 023°34'0 0.0
2014-Oct-27 03:33N 37°57' E 023°34'0 0.0
2014-Oct-27 02:33N 37°57' E 023°34'0 0.0
2014-Oct-27 01:31N 37°57' E 023°34'0 0.0
2014-Oct-27 00:29N 37°57' E 023°34'0 0.0
2014-Oct-26 23:32N 37°57' E 023°34'0 0.0
2014-Oct-26 22:33N 37°57' E 023°34'0 0.0
2014-Oct-26 21:34N 37°57' E 023°34'0 0.0
2014-Oct-26 20:34N 37°57' E 023°34'0 0.0
2014-Oct-26 19:33N 37°57' E 023°34'0 0.0
2014-Oct-26 18:33N 37°57' E 023°34'0 0.0
2014-Oct-26 17:33N 37°57' E 023°34'0 0.0
2014-Oct-26 16:34N 37°57' E 023°34'0 0.0
2014-Oct-26 15:33N 37°57' E 023°34'0 0.0
2014-Oct-26 14:33N 37°57' E 023°34'0 0.0
2014-Oct-26 13:33N 37°57' E 023°34'0 0.0
2014-Oct-26 12:33N 37°57' E 023°34'0 0.0
2014-Oct-26 11:33N 37°57' E 023°34'0 0.0
2014-Oct-26 10:33N 37°57' E 023°34'0 0.0
2014-Oct-26 09:33N 37°57' E 023°34'0 0.0
2014-Oct-26 08:33N 37°57' E 023°34'0 0.0
2014-Oct-26 07:33N 37°57' E 023°34'0 0.0
2014-Oct-26 06:33N 37°57' E 023°34'4 4.2
2014-Oct-26 05:33N 38°01' E 023°35'1 0.7
2014-Oct-26 04:33N 38°02' E 023°36'0 0.0
2014-Oct-26 03:33N 38°02' E 023°36'0 0.0
2014-Oct-26 02:33N 38°02' E 023°36'0 0.0
2014-Oct-26 01:33N 38°02' E 023°36'0 0.0
2014-Oct-26 00:34N 38°02' E 023°36'0 0.0
2014-Oct-25 23:34N 38°02' E 023°36'0 0.3
2014-Oct-25 22:31N 38°02' E 023°35'0 0.0
2014-Oct-25 21:33N 38°02' E 023°35'0 0.0
2014-Oct-25 20:33N 38°02' E 023°35'0 0.0
2014-Oct-25 19:33N 38°02' E 023°35'0 0.0
2014-Oct-25 18:33N 38°02' E 023°35'0 0.0
2014-Oct-25 17:33N 38°02' E 023°35'0 0.0
2014-Oct-25 16:33N 38°02' E 023°35'7 7.0
2014-Oct-25 15:33N 37°60' E 023°27'8 8.4
2014-Oct-25 14:33N 37°56' E 023°17'10 8.9
2014-Oct-25 13:28N 37°55' E 023°05'0 0.0
2014-Oct-25 08:19N 37°55' E 023°05'16 9.3
2014-Oct-25 06:33N 37°52' E 023°25'9 9.0
2014-Oct-25 05:33N 37°57' E 023°35'0 0.3
2014-Oct-25 04:33N 37°57' E 023°34'0 0.0
2014-Oct-25 03:33N 37°57' E 023°35'0 0.0
2014-Oct-25 02:33N 37°57' E 023°35'0 0.0
2014-Oct-25 01:33N 37°57' E 023°35'0 0.0
2014-Oct-25 00:33N 37°57' E 023°35'0 0.0
2014-Oct-24 23:34N 37°57' E 023°35'0 0.1
2014-Oct-24 22:34N 37°57' E 023°35'0 0.0
2014-Oct-24 21:33N 37°57' E 023°35'0 0.0
2014-Oct-24 20:33N 37°57' E 023°35'0 0.0
2014-Oct-24 19:33N 37°57' E 023°35'0 0.0
2014-Oct-24 18:33N 37°57' E 023°35'0 0.1
2014-Oct-24 17:34N 37°57' E 023°35'0 0.0
2014-Oct-24 16:33N 37°57' E 023°35'0 0.0
2014-Oct-24 15:34N 37°57' E 023°35'0 0.0
2014-Oct-24 14:33N 37°57' E 023°34'0 0.0
2014-Oct-24 13:33N 37°57' E 023°35'0 0.0
2014-Oct-24 12:33N 37°57' E 023°35'0 0.1
2014-Oct-24 11:33N 37°57' E 023°34'0 0.0
2014-Oct-24 10:33N 37°57' E 023°34'0 0.1
2014-Oct-24 09:33N 37°57' E 023°34'0 0.0
2014-Oct-24 08:34N 37°57' E 023°34'0 0.0
2014-Oct-24 07:33N 37°57' E 023°34'0 0.0
2014-Oct-24 06:33N 37°57' E 023°34'0 0.1
2014-Oct-24 05:33N 37°57' E 023°35'0 0.0
2014-Oct-24 04:33N 37°57' E 023°35'0 0.1
2014-Oct-24 03:33N 37°57' E 023°34'0 0.0
2014-Oct-24 02:33N 37°57' E 023°34'0 0.0
2014-Oct-24 01:33N 37°57' E 023°34'1 0.7
2014-Oct-24 00:33N 37°57' E 023°35'0 0.0
2014-Oct-23 23:34N 37°57' E 023°35'0 0.0
2014-Oct-23 22:33N 37°57' E 023°35'0 0.0
2014-Oct-23 21:34N 37°57' E 023°35'3 2.9
2014-Oct-23 20:33N 37°55' E 023°34'5 5.1
2014-Oct-23 19:33N 37°50' E 023°31'0 0.0
2014-Oct-23 18:33N 37°50' E 023°31'0 0.0
2014-Oct-23 17:33N 37°50' E 023°31'0 0.0
2014-Oct-23 16:33N 37°50' E 023°31'0 0.0
2014-Oct-23 15:33N 37°50' E 023°31'0 0.0
2014-Oct-23 14:33N 37°50' E 023°31'0 0.2
2014-Oct-23 13:33N 37°50' E 023°31'0 0.1
2014-Oct-23 12:33N 37°50' E 023°31'1 0.6
2014-Oct-23 11:33N 37°50' E 023°32'8 7.5
2014-Oct-23 10:33N 37°57' E 023°35'0 0.0
2014-Oct-23 09:33N 37°57' E 023°35'0 0.0
2014-Oct-23 08:33N 37°57' E 023°35'0 0.0
2014-Oct-23 07:34N 37°57' E 023°35'0 0.1
2014-Oct-23 06:34N 37°58' E 023°34'0 0.0
2014-Oct-23 05:33N 37°58' E 023°34'0 0.0
2014-Oct-23 04:34N 37°58' E 023°34'0 0.0
2014-Oct-23 03:33N 37°58' E 023°34'0 0.0
2014-Oct-23 02:33N 37°58' E 023°34'0 0.0
2014-Oct-23 01:33N 37°58' E 023°34'0 0.0
2014-Oct-23 00:33N 37°58' E 023°34'0 0.0
2014-Oct-22 23:34N 37°58' E 023°34'0 0.0
2014-Oct-22 22:33N 37°58' E 023°34'0 0.0
2014-Oct-22 21:33N 37°58' E 023°34'0 0.0
2014-Oct-22 20:33N 37°58' E 023°34'0 0.0
2014-Oct-22 19:33N 37°58' E 023°34'0 0.0
2014-Oct-22 18:33N 37°58' E 023°34'0 0.0
2014-Oct-22 17:34N 37°58' E 023°34'0 0.0
2014-Oct-22 16:34N 37°58' E 023°34'0 0.0
2014-Oct-22 15:33N 37°58' E 023°34'0 0.0
2014-Oct-22 14:33N 37°57' E 023°34'0 0.0
2014-Oct-22 13:33N 37°58' E 023°34'0 0.0
2014-Oct-22 12:34N 37°58' E 023°34'3 3.2
2014-Oct-22 11:34N 37°56' E 023°38'0 0.0
2014-Oct-22 10:33N 37°56' E 023°38'0 0.0
2014-Oct-22 09:34N 37°56' E 023°38'0 0.0
2014-Oct-22 08:33N 37°56' E 023°38'0 0.0
2014-Oct-22 07:34N 37°56' E 023°38'0 0.0
2014-Oct-22 06:33N 37°56' E 023°38'1 1.3
2014-Oct-22 05:33N 37°57' E 023°37'2 1.8
2014-Oct-22 04:33N 37°57' E 023°35'0 0.0
2014-Oct-22 03:33N 37°57' E 023°35'0 0.0
2014-Oct-22 02:33N 37°57' E 023°35'0 0.0
2014-Oct-22 01:34N 37°57' E 023°35'0 0.0
2014-Oct-22 00:33N 37°57' E 023°35'0 0.0
2014-Oct-21 23:34N 37°57' E 023°35'0 0.0
2014-Oct-21 22:34N 37°57' E 023°35'0 0.0
2014-Oct-21 21:33N 37°57' E 023°35'5 5.4
2014-Oct-21 20:33N 37°52' E 023°32'1 0.6
2014-Oct-21 19:33N 37°52' E 023°32'0 0.0
2014-Oct-21 18:33N 37°52' E 023°32'0 0.0
2014-Oct-21 16:33N 37°52' E 023°32'4 3.8
2014-Oct-21 15:33N 37°55' E 023°34'2 2.4
2014-Oct-21 14:33N 37°57' E 023°36'0 0.0
2014-Oct-21 13:33N 37°57' E 023°36'3 3.4
2014-Oct-21 12:33N 37°60' E 023°33'  
Track history (hours):
 
Tides and Currents Weather Stations Pressure Air Temp Water Temp Dewpoint Dewpoint Depression Visibility Wind Speed Wind Dir Waves Ship Positions

Menalon

Last reported at 2014-Oct-31 11:34 UTC. Time now 2014-Oct-31 12:21 UTC.
Position N 37°57' E 023°34'.

; draft 4 m.

Type: Ship (hazmat cat C). MMSI: 239741000.

Date/timePositionNaut miles runAvg speedWind from/ knotsBaromVisibWave heightAir tempDewpointWater temp
2014-Oct-31 11:34N 37°57' E 023°34'0 0.0
2014-Oct-31 10:33N 37°57' E 023°34'1 0.7
2014-Oct-31 09:33N 37°57' E 023°35'0 0.0
2014-Oct-31 08:34N 37°57' E 023°35'0 0.1
2014-Oct-31 07:34N 37°57' E 023°35'1 0.5
2014-Oct-31 06:34N 37°57' E 023°35'0 0.0
2014-Oct-31 05:34N 37°57' E 023°35'0 0.0
2014-Oct-31 04:33N 37°57' E 023°35'0 0.0
2014-Oct-31 03:33N 37°57' E 023°35'0 0.0
2014-Oct-31 02:33N 37°57' E 023°35'0 0.0
2014-Oct-31 01:33N 37°57' E 023°35'0 0.0
2014-Oct-31 00:34N 37°57' E 023°34'0 0.0
2014-Oct-30 23:34N 37°57' E 023°34'0 0.0
2014-Oct-30 22:34N 37°57' E 023°34'0 0.0
2014-Oct-30 21:33N 37°57' E 023°34'0 0.0
2014-Oct-30 20:33N 37°57' E 023°34'0 0.0
2014-Oct-30 19:34N 37°57' E 023°34'0 0.0
2014-Oct-30 18:34N 37°57' E 023°34'0 0.0
2014-Oct-30 17:33N 37°57' E 023°34'0 0.0
2014-Oct-30 16:34N 37°57' E 023°34'6 5.3
2014-Oct-30 15:29N 38°02' E 023°31'0 0.0
2014-Oct-30 14:33N 38°02' E 023°31'0 0.0
2014-Oct-30 13:33N 38°02' E 023°31'0 0.0
2014-Oct-30 12:33N 38°02' E 023°31'0 0.0
2014-Oct-30 11:34N 38°02' E 023°31'0 0.0
2014-Oct-30 10:33N 38°02' E 023°31'1 1.5
2014-Oct-30 09:33N 38°01' E 023°32'0 0.0
2014-Oct-30 08:33N 38°01' E 023°32'0 0.0
2014-Oct-30 07:33N 38°01' E 023°32'0 0.0
2014-Oct-30 06:34N 38°01' E 023°32'0 0.3
2014-Oct-30 05:33N 38°01' E 023°32'0 0.3
2014-Oct-30 04:33N 38°01' E 023°31'0 0.0
2014-Oct-30 03:33N 38°01' E 023°31'0 0.1
2014-Oct-30 02:33N 38°01' E 023°31'0 0.0
2014-Oct-30 01:34N 38°01' E 023°31'3 3.4
2014-Oct-30 00:33N 38°02' E 023°36'0 0.0
2014-Oct-29 23:33N 38°02' E 023°36'0 0.0
2014-Oct-29 22:33N 38°02' E 023°36'0 0.0
2014-Oct-29 21:33N 38°02' E 023°36'0 0.0
2014-Oct-29 20:33N 38°02' E 023°36'0 0.0
2014-Oct-29 19:33N 38°02' E 023°36'0 0.0
2014-Oct-29 18:33N 38°02' E 023°36'1 0.7
2014-Oct-29 17:31N 38°01' E 023°35'0 0.0
2014-Oct-29 16:34N 38°01' E 023°35'0 0.0
2014-Oct-29 15:33N 38°01' E 023°35'0 0.0
2014-Oct-29 14:34N 38°01' E 023°35'0 0.0
2014-Oct-29 13:32N 38°01' E 023°35'0 0.0
2014-Oct-29 12:33N 38°01' E 023°35'0 0.0
2014-Oct-29 11:33N 38°01' E 023°35'4 4.0
2014-Oct-29 10:34N 37°57' E 023°35'0 0.1
2014-Oct-29 09:33N 37°57' E 023°35'0 0.0
2014-Oct-29 08:33N 37°57' E 023°35'0 0.0
2014-Oct-29 07:33N 37°57' E 023°35'0 0.0
2014-Oct-29 06:33N 37°57' E 023°35'0 0.0
2014-Oct-29 05:33N 37°57' E 023°35'0 0.0
2014-Oct-29 04:34N 37°57' E 023°35'0 0.0
2014-Oct-29 03:33N 37°57' E 023°35'0 0.0
2014-Oct-29 02:33N 37°57' E 023°35'0 0.0
2014-Oct-29 01:33N 37°57' E 023°35'0 0.0
2014-Oct-29 00:33N 37°57' E 023°35'0 0.0
2014-Oct-28 23:34N 37°57' E 023°35'0 0.0
2014-Oct-28 22:33N 37°57' E 023°35'0 0.0
2014-Oct-28 21:33N 37°57' E 023°35'0 0.0
2014-Oct-28 20:34N 37°57' E 023°35'0 0.0
2014-Oct-28 19:33N 37°57' E 023°35'0 0.0
2014-Oct-28 18:34N 37°57' E 023°35'6 5.7
2014-Oct-28 17:33N 37°52' E 023°31'1 1.1
2014-Oct-28 16:33N 37°52' E 023°30'0 0.0
2014-Oct-28 15:33N 37°52' E 023°30'0 0.0
2014-Oct-28 14:33N 37°52' E 023°30'0 0.0
2014-Oct-28 13:33N 37°52' E 023°30'2 1.8
2014-Oct-28 12:33N 37°51' E 023°32'0 0.0
2014-Oct-28 11:34N 37°51' E 023°32'0 0.1
2014-Oct-28 10:33N 37°51' E 023°32'0 0.1
2014-Oct-28 09:33N 37°51' E 023°32'0 0.0
2014-Oct-28 08:33N 37°51' E 023°32'0 0.0
2014-Oct-28 07:33N 37°51' E 023°32'0 0.0
2014-Oct-28 06:33N 37°51' E 023°32'0 0.0
2014-Oct-28 05:34N 37°51' E 023°32'0 0.0
2014-Oct-28 04:33N 37°51' E 023°32'0 0.5
2014-Oct-28 03:34N 37°51' E 023°32'7 7.3
2014-Oct-28 02:33N 37°57' E 023°36'0 0.0
2014-Oct-28 01:33N 37°57' E 023°36'0 0.0
2014-Oct-28 00:34N 37°57' E 023°36'0 0.0
2014-Oct-27 23:33N 37°57' E 023°36'0 0.0
2014-Oct-27 22:33N 37°57' E 023°36'1 1.4
2014-Oct-27 21:34N 37°57' E 023°34'0 0.0
2014-Oct-27 20:33N 37°57' E 023°34'0 0.0
2014-Oct-27 19:33N 37°57' E 023°34'0 0.0
2014-Oct-27 18:34N 37°57' E 023°34'0 0.0
2014-Oct-27 17:34N 37°57' E 023°34'0 0.0
2014-Oct-27 16:34N 37°57' E 023°34'0 0.0
2014-Oct-27 15:33N 37°57' E 023°34'0 0.0
2014-Oct-27 14:34N 37°57' E 023°34'0 0.0
2014-Oct-27 13:33N 37°57' E 023°34'0 0.0
2014-Oct-27 12:33N 37°57' E 023°34'0 0.0
2014-Oct-27 11:34N 37°57' E 023°34'0 0.0
2014-Oct-27 10:33N 37°57' E 023°34'0 0.0
2014-Oct-27 09:33N 37°57' E 023°34'0 0.0
2014-Oct-27 08:34N 37°57' E 023°34'0 0.0
2014-Oct-27 07:33N 37°57' E 023°34'0 0.0
2014-Oct-27 06:33N 37°57' E 023°34'0 0.0
2014-Oct-27 05:34N 37°57' E 023°34'0 0.0
2014-Oct-27 04:33N 37°57' E 023°34'0 0.0
2014-Oct-27 03:33N 37°57' E 023°34'0 0.0
2014-Oct-27 02:33N 37°57' E 023°34'0 0.0
2014-Oct-27 01:31N 37°57' E 023°34'0 0.0
2014-Oct-27 00:29N 37°57' E 023°34'0 0.0
2014-Oct-26 23:32N 37°57' E 023°34'0 0.0
2014-Oct-26 22:33N 37°57' E 023°34'0 0.0
2014-Oct-26 21:34N 37°57' E 023°34'0 0.0
2014-Oct-26 20:34N 37°57' E 023°34'0 0.0
2014-Oct-26 19:33N 37°57' E 023°34'0 0.0
2014-Oct-26 18:33N 37°57' E 023°34'0 0.0
2014-Oct-26 17:33N 37°57' E 023°34'0 0.0
2014-Oct-26 16:34N 37°57' E 023°34'0 0.0
2014-Oct-26 15:33N 37°57' E 023°34'0 0.0
2014-Oct-26 14:33N 37°57' E 023°34'0 0.0
2014-Oct-26 13:33N 37°57' E 023°34'0 0.0
2014-Oct-26 12:33N 37°57' E 023°34'0 0.0
2014-Oct-26 11:33N 37°57' E 023°34'0 0.0
2014-Oct-26 10:33N 37°57' E 023°34'0 0.0
2014-Oct-26 09:33N 37°57' E 023°34'0 0.0
2014-Oct-26 08:33N 37°57' E 023°34'0 0.0
2014-Oct-26 07:33N 37°57' E 023°34'0 0.0
2014-Oct-26 06:33N 37°57' E 023°34'4 4.2
2014-Oct-26 05:33N 38°01' E 023°35'1 0.7
2014-Oct-26 04:33N 38°02' E 023°36'0 0.0
2014-Oct-26 03:33N 38°02' E 023°36'0 0.0
2014-Oct-26 02:33N 38°02' E 023°36'0 0.0
2014-Oct-26 01:33N 38°02' E 023°36'0 0.0
2014-Oct-26 00:34N 38°02' E 023°36'0 0.0
2014-Oct-25 23:34N 38°02' E 023°36'0 0.3
2014-Oct-25 22:31N 38°02' E 023°35'0 0.0
2014-Oct-25 21:33N 38°02' E 023°35'0 0.0
2014-Oct-25 20:33N 38°02' E 023°35'0 0.0
2014-Oct-25 19:33N 38°02' E 023°35'0 0.0
2014-Oct-25 18:33N 38°02' E 023°35'0 0.0
2014-Oct-25 17:33N 38°02' E 023°35'0 0.0
2014-Oct-25 16:33N 38°02' E 023°35'7 7.0
2014-Oct-25 15:33N 37°60' E 023°27'8 8.4
2014-Oct-25 14:33N 37°56' E 023°17'10 8.9
2014-Oct-25 13:28N 37°55' E 023°05'0 0.0
2014-Oct-25 08:19N 37°55' E 023°05'16 9.3
2014-Oct-25 06:33N 37°52' E 023°25'9 9.0
2014-Oct-25 05:33N 37°57' E 023°35'0 0.3
2014-Oct-25 04:33N 37°57' E 023°34'0 0.0
2014-Oct-25 03:33N 37°57' E 023°35'0 0.0
2014-Oct-25 02:33N 37°57' E 023°35'0 0.0
2014-Oct-25 01:33N 37°57' E 023°35'0 0.0
2014-Oct-25 00:33N 37°57' E 023°35'0 0.0
2014-Oct-24 23:34N 37°57' E 023°35'0 0.1
2014-Oct-24 22:34N 37°57' E 023°35'0 0.0
2014-Oct-24 21:33N 37°57' E 023°35'0 0.0
2014-Oct-24 20:33N 37°57' E 023°35'0 0.0
2014-Oct-24 19:33N 37°57' E 023°35'0 0.0
2014-Oct-24 18:33N 37°57' E 023°35'0 0.1
2014-Oct-24 17:34N 37°57' E 023°35'0 0.0
2014-Oct-24 16:33N 37°57' E 023°35'0 0.0
2014-Oct-24 15:34N 37°57' E 023°35'0 0.0
2014-Oct-24 14:33N 37°57' E 023°34'0 0.0
2014-Oct-24 13:33N 37°57' E 023°35'0 0.0
2014-Oct-24 12:33N 37°57' E 023°35'0 0.1
2014-Oct-24 11:33N 37°57' E 023°34'0 0.0
2014-Oct-24 10:33N 37°57' E 023°34'0 0.1
2014-Oct-24 09:33N 37°57' E 023°34'0 0.0
2014-Oct-24 08:34N 37°57' E 023°34'0 0.0
2014-Oct-24 07:33N 37°57' E 023°34'0 0.0
2014-Oct-24 06:33N 37°57' E 023°34'0 0.1
2014-Oct-24 05:33N 37°57' E 023°35'0 0.0
2014-Oct-24 04:33N 37°57' E 023°35'0 0.1
2014-Oct-24 03:33N 37°57' E 023°34'0 0.0
2014-Oct-24 02:33N 37°57' E 023°34'0 0.0
2014-Oct-24 01:33N 37°57' E 023°34'1 0.7
2014-Oct-24 00:33N 37°57' E 023°35'0 0.0
2014-Oct-23 23:34N 37°57' E 023°35'0 0.0
2014-Oct-23 22:33N 37°57' E 023°35'0 0.0
2014-Oct-23 21:34N 37°57' E 023°35'3 2.9
2014-Oct-23 20:33N 37°55' E 023°34'5 5.1
2014-Oct-23 19:33N 37°50' E 023°31'0 0.0
2014-Oct-23 18:33N 37°50' E 023°31'0 0.0
2014-Oct-23 17:33N 37°50' E 023°31'0 0.0
2014-Oct-23 16:33N 37°50' E 023°31'0 0.0
2014-Oct-23 15:33N 37°50' E 023°31'0 0.0
2014-Oct-23 14:33N 37°50' E 023°31'0 0.2
2014-Oct-23 13:33N 37°50' E 023°31'0 0.1
2014-Oct-23 12:33N 37°50' E 023°31'1 0.6
2014-Oct-23 11:33N 37°50' E 023°32'8 7.5
2014-Oct-23 10:33N 37°57' E 023°35'0 0.0
2014-Oct-23 09:33N 37°57' E 023°35'0 0.0
2014-Oct-23 08:33N 37°57' E 023°35'0 0.0
2014-Oct-23 07:34N 37°57' E 023°35'0 0.1
2014-Oct-23 06:34N 37°58' E 023°34'0 0.0
2014-Oct-23 05:33N 37°58' E 023°34'0 0.0
2014-Oct-23 04:34N 37°58' E 023°34'0 0.0
2014-Oct-23 03:33N 37°58' E 023°34'0 0.0
2014-Oct-23 02:33N 37°58' E 023°34'0 0.0
2014-Oct-23 01:33N 37°58' E 023°34'0 0.0
2014-Oct-23 00:33N 37°58' E 023°34'0 0.0
2014-Oct-22 23:34N 37°58' E 023°34'0 0.0
2014-Oct-22 22:33N 37°58' E 023°34'0 0.0
2014-Oct-22 21:33N 37°58' E 023°34'0 0.0
2014-Oct-22 20:33N 37°58' E 023°34'0 0.0
2014-Oct-22 19:33N 37°58' E 023°34'0 0.0
2014-Oct-22 18:33N 37°58' E 023°34'0 0.0
2014-Oct-22 17:34N 37°58' E 023°34'0 0.0
2014-Oct-22 16:34N 37°58' E 023°34'0 0.0
2014-Oct-22 15:33N 37°58' E 023°34'0 0.0
2014-Oct-22 14:33N 37°57' E 023°34'0 0.0
2014-Oct-22 13:33N 37°58' E 023°34'0 0.0
2014-Oct-22 12:34N 37°58' E 023°34'3 3.2
2014-Oct-22 11:34N 37°56' E 023°38'0 0.0
2014-Oct-22 10:33N 37°56' E 023°38'0 0.0
2014-Oct-22 09:34N 37°56' E 023°38'0 0.0
2014-Oct-22 08:33N 37°56' E 023°38'0 0.0
2014-Oct-22 07:34N 37°56' E 023°38'0 0.0
2014-Oct-22 06:33N 37°56' E 023°38'1 1.3
2014-Oct-22 05:33N 37°57' E 023°37'2 1.8
2014-Oct-22 04:33N 37°57' E 023°35'0 0.0
2014-Oct-22 03:33N 37°57' E 023°35'0 0.0
2014-Oct-22 02:33N 37°57' E 023°35'0 0.0
2014-Oct-22 01:34N 37°57' E 023°35'0 0.0
2014-Oct-22 00:33N 37°57' E 023°35'0 0.0
2014-Oct-21 23:34N 37°57' E 023°35'0 0.0
2014-Oct-21 22:34N 37°57' E 023°35'0 0.0
2014-Oct-21 21:33N 37°57' E 023°35'5 5.4
2014-Oct-21 20:33N 37°52' E 023°32'1 0.6
2014-Oct-21 19:33N 37°52' E 023°32'0 0.0
2014-Oct-21 18:33N 37°52' E 023°32'0 0.0
2014-Oct-21 16:33N 37°52' E 023°32'4 3.8
2014-Oct-21 15:33N 37°55' E 023°34'2 2.4
2014-Oct-21 14:33N 37°57' E 023°36'0 0.0
2014-Oct-21 13:33N 37°57' E 023°36'3 3.4
2014-Oct-21 12:33N 37°60' E 023°33'  

Dump ship's entire track history